Hoytville, Ohio
Current Conditions -  °F | °C
As of 7:53 AM on Friday 28 Nov 2014 (Local Time) from KFDY Reporting Station
Overcast Overcast  
Wind Chill: -10°   Ceiling: 3700
Heat Index: -5°   Visibility: 10mi
Dew Point: -7°   Wind: 7mph
Humidity: 85%   Direction: 260°W
Pressure: 30.37"   Gusts: NA
Location:  41.19°N, 83.78°W
Report Text: KFDY 281253Z AUTO 26006KT 10SM OVC037 M05/M07 A3037 RMK AO2 SLP291 T10501072
Loading
Personal Weather Stations






























Interactive Weather Map New forecast layout! Learn more

10-Day Weather Forecast

Advertisements
Track Severe Weather on mobile